Time;durP1;ratioP1;P1;durP2;ratioP2;P2;SDS_P1;SDS_P2;PMS_P1;PMS_P2;Temp;Humidity;BMP_temperature;BMP_pressure;BME280_temperature;BME280_humidity;BME280_pressure;Samples;Min_cycle;Max_cycle;Signal;HPM_P1;HPM_P2
2022/01/12 00:01:33;;;;;;;22.35;12.68;;;;;;;1.45;64.81;100941.09;5153813;28;20057;-68
2022/01/12 00:04:23;;;;;;;24.98;14.07;;;;;;;1.30;65.89;100937.09;5141991;28;20050;-68
2022/01/12 00:07:14;;;;;;;25.23;13.02;;;;;;;1.26;67.07;100927.59;5144323;28;20070;-68
2022/01/12 00:10:04;;;;;;;23.95;13.73;;;;;;;1.39;66.86;100931.63;5142043;28;20051;-68
2022/01/12 00:12:55;;;;;;;31.98;15.05;;;;;;;1.28;66.66;100931.03;5141486;28;20140;-68
2022/01/12 00:15:45;;;;;;;37.13;15.82;;;;;;;1.15;66.64;100938.31;5131648;28;20442;-68
2022/01/12 00:18:35;;;;;;;28.30;15.18;;;;;;;0.97;66.52;100921.34;5141290;28;20287;-67
2022/01/12 00:21:25;;;;;;;30.30;15.55;;;;;;;0.90;66.45;100919.78;5143650;28;20454;-68
2022/01/12 00:24:15;;;;;;;26.08;14.68;;;;;;;0.97;67.54;100930.94;5127824;28;20061;-68
2022/01/12 00:33:23;;;;;;;29.80;14.35;;;;;;;0.77;66.36;100932.25;5138687;28;20581;-68
2022/01/12 00:36:13;;;;;;;30.60;15.10;;;;;;;0.73;66.83;100943.66;5157525;28;20129;-69
2022/01/12 00:39:05;;;;;;;30.98;15.98;;;;;;;0.69;66.26;100949.81;5120994;28;20517;-68
2022/01/12 00:41:55;;;;;;;29.17;15.60;;;;;;;0.68;67.25;100950.72;5153639;28;20053;-68
2022/01/12 00:44:46;;;;;;;28.38;14.90;;;;;;;0.67;67.42;100956.84;5155063;28;20051;-68
2022/01/12 00:47:36;;;;;;;29.30;14.90;;;;;;;0.57;68.16;100944.88;5143862;28;20512;-68
2022/01/12 00:50:26;;;;;;;32.58;15.75;;;;;;;0.66;67.91;100960.31;5164431;28;20046;-68
2022/01/12 00:53:16;;;;;;;29.70;16.60;;;;;;;0.68;67.96;100948.09;5134547;28;20059;-68
2022/01/12 00:56:07;;;;;;;35.50;16.95;;;;;;;0.78;67.96;100944.41;5160941;28;20136;-68
2022/01/12 00:58:57;;;;;;;30.13;15.60;;;;;;;0.64;68.25;100951.69;5123973;28;20057;-68
2022/01/12 01:01:47;;;;;;;33.45;17.77;;;;;;;0.76;67.82;100943.56;5152858;28;20073;-68
2022/01/12 01:04:37;;;;;;;35.88;16.73;;;;;;;0.62;67.97;100953.44;5119213;28;20400;-68
2022/01/12 01:07:28;;;;;;;30.13;15.95;;;;;;;0.74;68.10;100954.94;5149271;28;20408;-67
2022/01/12 01:11:06;;;;;;;30.25;15.82;;;;;;;0.79;69.26;100959.16;5141086;28;20571;-67
2022/01/12 01:13:38;;;;;;;28.50;15.18;;;;;;;0.74;67.32;100952.34;5141034;28;20053;-71
2022/01/12 01:25:51;;;;;;;28.83;14.02;;;;;;;0.53;68.85;100951.03;5135226;28;20058;-69
2022/01/12 01:28:44;;;;;;;27.58;15.35;;;;;;;0.51;69.06;100940.63;5145832;28;20125;-67
2022/01/12 01:31:36;;;;;;;28.60;14.90;;;;;;;0.45;67.13;100957.28;5139433;28;20132;-68
2022/01/12 01:34:31;;;;;;;28.52;13.55;;;;;;;0.42;67.70;100959.94;5131870;28;20126;-68
2022/01/12 01:37:21;;;;;;;28.98;14.43;;;;;;;0.37;67.57;100953.97;5137207;28;20043;-69
2022/01/12 01:40:14;;;;;;;25.42;12.88;;;;;;;0.34;67.85;100948.81;5139284;28;20065;-68
2022/01/12 01:55:23;;;;;;;28.15;13.68;;;;;;;0.69;67.47;100955.88;5135831;28;20045;-68
2022/01/12 01:58:15;;;;;;;27.73;14.38;;;;;;;0.58;68.68;100957.88;5128350;28;20102;-68
2022/01/12 02:01:06;;;;;;;29.13;13.88;;;;;;;0.41;68.00;100958.25;5118401;28;20172;-68
2022/01/12 02:04:04;;;;;;;30.35;13.95;;;;;;;0.34;68.02;100964.47;5144003;28;20177;-68
2022/01/12 02:06:58;;;;;;;29.23;15.55;;;;;;;0.21;67.92;100970.81;5144260;28;20050;-68
2022/01/12 02:09:49;;;;;;;32.05;15.68;;;;;;;0.22;67.33;100976.00;5136635;28;20053;-68
2022/01/12 02:12:47;;;;;;;28.80;15.32;;;;;;;0.18;67.82;100986.53;5147134;28;20121;-68
2022/01/12 02:15:40;;;;;;;31.38;16.48;;;;;;;0.20;67.29;100988.25;5122313;28;20139;-67
2022/01/12 02:39:44;;;;;;;29.17;15.32;;;;;;;0.28;69.43;100948.94;5155601;28;20053;-67
2022/01/12 02:40:37;;;;;;;36.17;17.10;;;;;;;0.19;69.14;100956.94;5174134;23;20057;-89
2022/01/12 02:55:50;;;;;;;;;;;;;;;-0.11;68.65;100958.41;5156631;28;20052;-86
2022/01/12 02:58:42;;;;;;;29.42;14.23;;;;;;;-0.11;68.67;100956.63;5134566;28;19932;-86
2022/01/12 03:04:23;;;;;;;31.38;15.77;;;;;;;-0.03;69.67;100962.59;5163024;28;20069;-86
2022/01/12 03:07:16;;;;;;;28.08;14.98;;;;;;;-0.29;69.16;100931.78;5143709;28;20047;-86
2022/01/12 03:10:10;;;;;;;30.05;14.98;;;;;;;-0.10;68.36;100978.34;5170291;28;20057;-86
2022/01/12 03:13:00;;;;;;;27.73;14.63;;;;;;;-0.24;69.38;100966.44;5154344;28;20065;-85
2022/01/12 03:15:51;;;;;;;30.15;15.43;;;;;;;-0.22;69.89;100931.66;5134019;28;20049;-86
2022/01/12 03:18:42;;;;;;;33.97;16.35;;;;;;;-0.13;69.03;100958.44;5160622;28;20526;-86
2022/01/12 03:21:34;;;;;;;29.80;14.80;;;;;;;-0.32;69.33;100962.25;5148515;28;20049;-85
2022/01/12 03:24:24;;;;;;;32.47;15.13;;;;;;;-0.51;68.73;100941.72;5128011;28;20532;-86
2022/01/12 03:27:16;;;;;;;29.40;14.77;;;;;;;-0.28;69.11;100985.63;5149022;28;20043;-86
2022/01/12 03:30:06;;;;;;;30.40;15.40;;;;;;;-0.39;68.94;100991.91;5151374;28;20056;-86
2022/01/12 03:33:18;;;;;;;27.48;14.07;;;;;;;-1.09;69.14;100889.69;5168156;28;20140;-86
2022/01/12 03:39:12;;;;;;;30.88;14.73;;;;;;;-0.34;69.85;100984.88;5145835;28;20077;-86
2022/01/12 03:42:04;;;;;;;29.60;14.27;;;;;;;-0.72;69.56;100953.34;5161001;28;20042;-85
2022/01/12 03:44:54;;;;;;;27.05;14.02;;;;;;;-0.65;68.95;100964.53;5142908;28;20046;-86
2022/01/12 03:47:44;;;;;;;28.70;13.77;;;;;;;-0.76;69.01;100949.09;5163471;28;20038;-86
2022/01/12 03:50:34;;;;;;;28.48;13.93;;;;;;;-0.83;68.44;100955.28;5146287;28;20132;-85
2022/01/12 03:53:25;;;;;;;26.98;14.18;;;;;;;-0.72;68.64;100989.81;5147367;28;20061;-85
2022/01/12 03:56:15;;;;;;;28.55;14.60;;;;;;;-0.69;68.71;100994.13;5149774;28;20420;-86
2022/01/12 03:59:06;;;;;;;29.95;15.43;;;;;;;-0.57;68.96;101008.69;5164354;28;20073;-85
2022/01/12 04:01:57;;;;;;;25.65;14.23;;;;;;;-0.59;69.53;101011.34;5138160;28;20088;-86
2022/01/12 04:05:09;;;;;;;31.65;15.63;;;;;;;-0.53;69.66;101015.56;5154750;28;20457;-86
2022/01/12 04:08:19;;;;;;;33.40;15.55;;;;;;;-0.46;69.63;101006.81;5133630;28;20527;-86
2022/01/12 04:11:10;;;;;;;28.27;15.13;;;;;;;-0.73;70.30;100976.81;5141731;28;20177;-85
2022/01/12 04:14:00;;;;;;;32.25;16.02;;;;;;;-0.64;69.41;100950.63;5147841;28;20053;-86
2022/01/12 04:16:50;;;;;;;30.10;15.23;;;;;;;-0.55;69.68;100988.69;5137889;28;20064;-86
2022/01/12 04:19:41;;;;;;;27.00;13.93;;;;;;;-0.73;69.04;100982.00;5159225;28;20128;-85
2022/01/12 04:25:40;;;;;;;25.42;13.82;;;;;;;-0.79;69.46;100979.53;5152206;28;20148;-86
2022/01/12 04:28:30;;;;;;;26.10;15.07;;;;;;;-0.73;69.82;100975.09;5154339;28;20057;-86
2022/01/12 04:31:20;;;;;;;30.17;14.65;;;;;;;-0.64;68.47;101014.91;5142245;28;20047;-87
2022/01/12 04:34:11;;;;;;;30.13;16.20;;;;;;;-0.77;69.91;101007.25;5165921;28;20056;-86
2022/01/12 04:37:01;;;;;;;29.08;14.50;;;;;;;-0.74;69.34;101012.41;5152848;28;20042;-86
2022/01/12 04:39:51;;;;;;;27.90;14.27;;;;;;;-0.91;68.97;101004.00;5165024;28;20119;-86
2022/01/12 04:42:42;;;;;;;27.33;13.93;;;;;;;-0.97;70.49;100988.47;5161934;28;20168;-86
2022/01/12 04:45:39;;;;;;;33.65;15.48;;;;;;;-0.32;68.36;100993.53;5143602;28;20114;-87
2022/01/12 04:51:20;;;;;;;27.55;15.05;;;;;;;0.06;67.14;100995.44;5166443;28;20574;-86
2022/01/12 04:54:11;;;;;;;32.00;16.60;;;;;;;-0.06;68.15;101020.00;5151721;28;20716;-87
2022/01/12 04:57:02;;;;;;;26.98;14.30;;;;;;;-0.43;68.03;101021.50;5144226;28;20031;-87
2022/01/12 05:00:05;;;;;;;30.40;15.27;;;;;;;-0.62;68.63;101034.84;5145622;28;20423;-86
2022/01/12 05:06:38;;;;;;;31.63;15.68;;;;;;;-0.90;69.56;101013.53;5170358;28;20056;-87
2022/01/12 05:09:47;;;;;;;35.17;14.80;;;;;;;-0.77;69.52;101051.53;5143692;28;20050;-86
2022/01/12 05:12:52;;;;;;;30.02;15.68;;;;;;;-0.60;69.03;101048.69;5169983;28;20097;-85
2022/01/12 05:15:44;;;;;;;28.25;15.52;;;;;;;-0.98;69.59;101034.47;5187380;28;20073;-84
2022/01/12 05:18:34;;;;;;;29.98;15.15;;;;;;;-0.88;68.79;101061.25;5169599;28;20053;-83
2022/01/12 05:21:24;;;;;;;32.15;15.38;;;;;;;-0.88;69.97;101049.97;5193721;28;20088;-82
2022/01/12 05:24:15;;;;;;;32.70;15.50;;;;;;;-0.96;69.81;101050.97;5186235;28;20069;-85
2022/01/12 05:27:05;;;;;;;30.33;15.40;;;;;;;-1.10;69.78;101032.03;5170359;28;20057;-84
2022/01/12 05:29:55;;;;;;;31.65;15.60;;;;;;;-0.82;69.19;101084.63;5159587;28;20053;-87
2022/01/12 05:32:46;;;;;;;31.48;15.07;;;;;;;-1.06;69.80;101075.41;5177670;28;20072;-86
2022/01/12 05:35:38;;;;;;;29.60;15.27;;;;;;;-1.26;69.16;101074.75;5171169;28;20105;-86
2022/01/12 05:38:32;;;;;;;27.30;14.70;;;;;;;-1.18;69.91;101059.91;5167504;28;20364;-87
2022/01/12 05:41:22;;;;;;;33.55;15.68;;;;;;;-1.10;70.03;101039.00;5165545;28;20097;-83
2022/01/12 05:44:13;;;;;;;29.52;15.07;;;;;;;-1.07;69.82;101050.22;5167025;28;20108;-83
2022/01/12 05:47:05;;;;;;;29.27;14.88;;;;;;;-1.50;69.73;101003.91;5152774;28;20053;-84
2022/01/12 05:49:55;;;;;;;30.77;15.90;;;;;;;-1.22;69.12;101055.63;5153955;28;20065;-84
2022/01/12 05:52:46;;;;;;;30.15;14.77;;;;;;;-1.39;70.08;101071.47;5145800;28;20567;-86
2022/01/12 05:55:36;;;;;;;30.95;14.82;;;;;;;-1.26;69.24;101085.16;5157259;28;20500;-87
2022/01/12 05:58:27;;;;;;;33.88;15.95;;;;;;;-1.37;69.25;101066.22;5170170;28;20412;-87
2022/01/12 06:01:18;;;;;;;32.50;16.17;;;;;;;-1.20;71.54;101103.31;5156333;28;20065;-87
2022/01/12 06:04:11;;;;;;;33.95;16.83;;;;;;;-1.17;71.09;101074.66;5150012;28;20058;-89
2022/01/12 06:07:02;;;;;;;35.13;15.80;;;;;;;-1.16;70.23;101059.88;5156738;28;20562;-84
2022/01/12 06:09:53;;;;;;;35.28;16.08;;;;;;;-1.12;70.27;101078.06;5157617;28;20061;-86
2022/01/12 06:12:44;;;;;;;33.33;14.93;;;;;;;-1.00;69.94;101093.50;5150629;28;20053;-85
2022/01/12 06:15:40;;;;;;;33.20;15.25;;;;;;;-1.07;69.71;101112.69;5166273;28;20041;-83
2022/01/12 06:18:31;;;;;;;31.08;14.68;;;;;;;-1.49;69.41;101060.28;5171736;28;20090;-83
2022/01/12 06:21:22;;;;;;;29.10;14.77;;;;;;;-1.23;69.83;101096.41;5144480;28;20180;-85
2022/01/12 06:24:19;;;;;;;28.30;14.90;;;;;;;-1.23;70.26;101104.19;5151429;28;20057;-87
2022/01/12 06:27:14;;;;;;;28.10;14.63;;;;;;;-1.11;69.60;101111.03;5168855;28;20095;-86
2022/01/12 06:31:10;;;;;;;29.10;13.98;;;;;;;-1.26;69.12;101105.97;5147510;28;20065;-86
2022/01/12 06:33:14;;;;;;;29.45;14.90;;;;;;;-1.30;69.04;101075.66;5184494;28;20324;-86
2022/01/12 06:36:05;;;;;;;32.00;15.80;;;;;;;-1.16;69.62;101068.56;5158887;28;20056;-86
2022/01/12 06:38:57;;;;;;;34.75;16.70;;;;;;;-1.36;71.16;101065.34;5150352;28;20124;-86
2022/01/12 06:41:51;;;;;;;39.35;18.55;;;;;;;-0.81;70.10;101085.47;5155640;28;20039;-86
2022/01/12 06:44:41;;;;;;;41.00;19.15;;;;;;;-1.40;70.98;101025.47;5154192;28;20053;-86
2022/01/12 06:47:31;;;;;;;35.03;17.88;;;;;;;-1.34;72.53;101071.38;5160991;28;20105;-87
2022/01/12 06:50:21;;;;;;;39.42;18.73;;;;;;;-0.93;70.80;101073.47;5149703;28;20420;-85
2022/01/12 06:53:12;;;;;;;38.22;18.67;;;;;;;-0.72;70.14;101099.25;5143880;28;20062;-86
2022/01/12 06:56:03;;;;;;;41.17;18.95;;;;;;;-1.08;71.15;101082.34;5143127;28;20046;-86
2022/01/12 06:58:58;;;;;;;41.58;19.60;;;;;;;-1.12;70.66;101075.47;5135568;28;20042;-86
2022/01/12 07:01:49;;;;;;;35.60;18.20;;;;;;;-0.78;69.82;101098.47;5150126;28;20109;-86
2022/01/12 07:04:47;;;;;;;38.10;17.98;;;;;;;-0.83;70.19;101105.47;5130851;28;20450;-86
2022/01/12 07:07:37;;;;;;;36.78;17.85;;;;;;;-0.97;69.65;101053.56;5145935;28;20054;-86
2022/01/12 07:10:34;;;;;;;35.80;16.77;;;;;;;-1.19;71.35;101103.31;5163303;28;20427;-86
2022/01/12 07:13:34;;;;;;;34.72;17.75;;;;;;;-1.13;70.03;101076.31;5136098;28;20089;-86
2022/01/12 07:16:25;;;;;;;35.65;18.38;;;;;;;-1.03;69.23;101035.41;5151956;28;20054;-90
2022/01/12 07:19:15;;;;;;;34.80;17.35;;;;;;;-0.64;69.23;101090.44;5147832;28;20065;-89
2022/01/12 07:22:06;;;;;;;33.40;17.75;;;;;;;-0.32;68.75;101114.28;5159058;28;20050;-91
2022/01/12 07:24:56;;;;;;;43.53;18.58;;;;;;;-1.27;71.18;101041.81;5159421;28;20045;-91
2022/01/12 07:27:46;;;;;;;41.33;17.60;;;;;;;-1.33;70.68;101067.91;5133021;28;20144;-91
2022/01/12 07:30:37;;;;;;;33.95;18.08;;;;;;;-0.97;71.86;101116.91;5163572;28;20053;-91
2022/01/12 07:33:32;;;;;;;34.53;17.23;;;;;;;-0.65;70.77;101139.09;5150121;28;20049;-90
2022/01/12 07:36:23;;;;;;;34.70;17.73;;;;;;;-0.79;69.08;101094.13;5157700;28;20061;-90
2022/01/12 07:39:14;;;;;;;33.53;17.55;;;;;;;-0.53;68.71;101115.47;5166048;28;20118;-90
2022/01/12 07:42:05;;;;;;;30.77;16.52;;;;;;;-0.50;69.55;101138.91;5179076;28;20112;-91
2022/01/12 07:45:01;;;;;;;35.90;17.50;;;;;;;-0.48;68.47;101152.75;5165458;28;20068;-91
2022/01/12 07:47:51;;;;;;;31.60;16.88;;;;;;;-0.59;68.43;101136.41;5153308;28;20087;-91
2022/01/12 07:50:44;;;;;;;37.03;17.05;;;;;;;-0.38;68.66;101189.97;5160420;28;20096;-91
2022/01/12 07:53:34;;;;;;;39.22;17.20;;;;;;;-0.35;68.99;101189.06;5156268;28;20803;-90
2022/01/12 07:56:25;;;;;;;40.38;18.27;;;;;;;-0.07;69.31;101224.28;5131324;28;20060;-91
2022/01/12 07:59:16;;;;;;;40.80;18.67;;;;;;;-0.09;68.75;101227.81;5147761;28;20054;-90
2022/01/12 08:02:06;;;;;;;43.17;20.63;;;;;;;-0.07;69.13;101216.47;5159108;28;20060;-90
2022/01/12 08:04:57;;;;;;;41.13;20.45;;;;;;;-0.17;68.93;101183.59;5165680;28;20046;-90
2022/01/12 08:07:48;;;;;;;40.58;20.38;;;;;;;0.32;68.44;101201.09;5154572;28;20131;-91
2022/01/12 08:10:38;;;;;;;41.65;21.52;;;;;;;0.56;67.38;101196.34;5168394;28;20111;-90
2022/01/12 08:13:28;;;;;;;45.20;23.30;;;;;;;0.49;65.60;101164.25;5151977;28;20536;-90
2022/01/12 08:16:19;;;;;;;47.53;25.25;;;;;;;0.11;68.24;101196.22;5142409;28;20057;-91
2022/01/12 08:19:09;;;;;;;42.63;22.90;;;;;;;0.08;68.22;101215.38;5178622;28;20136;-91
2022/01/12 08:22:00;;;;;;;37.75;20.25;;;;;;;-0.34;69.42;101215.09;5135440;28;20622;-91
2022/01/12 08:24:50;;;;;;;46.90;20.65;;;;;;;-0.34;69.75;101215.09;5192320;28;20110;-91
2022/01/12 08:27:41;;;;;;;39.65;19.77;;;;;;;-0.15;69.18;101184.44;5173542;28;20034;-92
2022/01/12 08:30:34;;;;;;;49.40;23.88;;;;;;;0.24;68.74;101210.81;5175204;28;20046;-90
2022/01/12 08:33:26;;;;;;;49.03;22.10;;;;;;;0.35;68.34;101211.47;5188396;28;20034;-91
2022/01/12 08:36:16;;;;;;;42.47;20.52;;;;;;;0.11;68.41;101164.94;5171237;28;20059;-91
2022/01/12 08:39:08;;;;;;;42.10;21.15;;;;;;;0.51;67.18;101221.69;5140156;28;20057;-91
2022/01/12 08:41:58;;;;;;;47.92;21.75;;;;;;;0.27;67.69;101213.38;5133569;28;20120;-91
2022/01/12 08:44:59;;;;;;;47.30;21.70;;;;;;;0.29;66.71;101198.53;5169372;28;20050;-90
2022/01/12 08:47:49;;;;;;;43.47;21.70;;;;;;;-0.02;67.30;101151.22;5166992;28;20523;-90
2022/01/12 08:50:40;;;;;;;42.50;22.33;;;;;;;0.26;67.35;101163.81;5162862;28;20049;-90
2022/01/12 08:53:30;;;;;;;47.17;24.27;;;;;;;0.31;67.00;101201.13;5149848;28;20053;-90
2022/01/12 08:56:22;;;;;;;41.17;21.25;;;;;;;-0.02;68.56;101185.97;5152966;28;20054;-90
2022/01/12 08:59:13;;;;;;;37.10;20.25;;;;;;;-0.22;68.78;101180.19;5169350;28;20054;-91
2022/01/12 09:02:06;;;;;;;47.53;23.38;;;;;;;0.25;67.32;101170.78;5154251;28;20121;-91
2022/01/12 09:04:56;;;;;;;46.28;21.90;;;;;;;0.26;67.84;101215.97;5147817;28;20041;-91
2022/01/12 09:07:47;;;;;;;37.53;20.10;;;;;;;0.57;67.52;101234.63;5142654;28;20096;-91
2022/01/12 09:10:37;;;;;;;40.22;21.63;;;;;;;0.53;66.31;101201.63;5166252;28;20137;-91
2022/01/12 09:13:28;;;;;;;37.58;19.75;;;;;;;0.62;66.78;101219.75;5159821;28;20519;-90
2022/01/12 09:16:18;;;;;;;40.88;21.98;;;;;;;1.05;65.93;101252.94;5167376;28;20053;-91
2022/01/12 09:19:09;;;;;;;41.60;20.42;;;;;;;1.30;65.54;101255.94;5168624;28;20475;-91
2022/01/12 09:22:00;;;;;;;39.38;21.17;;;;;;;1.25;65.21;101175.00;5167661;28;20075;-90
2022/01/12 09:24:50;;;;;;;35.72;19.77;;;;;;;1.62;64.80;101216.94;5188709;28;20065;-91
2022/01/12 09:27:41;;;;;;;41.00;22.13;;;;;;;1.59;64.41;101187.38;5136283;28;20125;-91
2022/01/12 09:30:31;;;;;;;36.45;21.50;;;;;;;1.97;64.19;101261.53;5160337;28;20148;-91
2022/01/12 09:33:22;;;;;;;38.53;20.00;;;;;;;2.00;63.58;101243.16;5180401;28;20102;-91
2022/01/12 09:36:13;;;;;;;40.67;20.92;;;;;;;1.79;64.20;101198.28;5188338;28;20030;-91
2022/01/12 09:39:04;;;;;;;38.47;20.15;;;;;;;1.79;63.90;101213.13;5170457;28;20345;-91
2022/01/12 09:41:54;;;;;;;37.42;19.67;;;;;;;1.53;64.61;101221.50;5168550;28;20099;-90
2022/01/12 09:44:46;;;;;;;38.35;19.35;;;;;;;1.61;64.13;101264.03;5153321;28;20049;-91
2022/01/12 09:47:38;;;;;;;38.75;20.80;;;;;;;1.86;64.26;101282.72;5164691;28;20100;-91
2022/01/12 09:50:31;;;;;;;40.55;21.10;;;;;;;2.15;63.27;101310.84;5155165;28;20045;-90
2022/01/12 09:53:21;;;;;;;49.72;22.23;;;;;;;1.64;62.98;101258.75;5141569;28;20051;-92
2022/01/12 09:56:16;;;;;;;37.13;21.45;;;;;;;1.81;63.64;101259.25;5155613;28;20124;-91
2022/01/12 09:59:10;;;;;;;40.40;22.58;;;;;;;1.68;63.50;101257.78;5155595;28;20048;-91
2022/01/12 10:02:02;;;;;;;52.88;28.73;;;;;;;2.06;63.38;101297.97;5147952;28;20186;-91
2022/01/12 10:05:27;;;;;;;54.08;32.10;;;;;;;2.07;63.72;101305.78;5170405;28;20041;-91
2022/01/12 10:08:17;;;;;;;39.47;21.90;;;;;;;1.97;62.71;101288.56;5145849;28;20096;-91
2022/01/12 10:11:13;;;;;;;45.25;24.30;;;;;;;2.08;62.81;101296.16;5154432;28;20046;-91
2022/01/12 10:14:07;;;;;;;41.85;22.45;;;;;;;1.88;63.33;101260.81;5158648;28;20127;-91
2022/01/12 10:16:58;;;;;;;42.05;22.65;;;;;;;2.09;62.08;101279.59;5155620;28;20045;-92
2022/01/12 10:19:48;;;;;;;35.45;19.55;;;;;;;2.14;62.47;101303.03;5168301;28;20045;-90
2022/01/12 10:22:44;;;;;;;35.83;19.50;;;;;;;2.20;63.50;101303.75;5149245;28;20066;-89
2022/01/12 10:25:36;;;;;;;41.40;21.05;;;;;;;1.67;62.30;101253.44;5160959;28;20068;-90
2022/01/12 10:28:26;;;;;;;74.90;44.25;;;;;;;2.15;62.13;101309.97;5158038;28;20052;-91
2022/01/12 10:31:18;;;;;;;43.10;24.10;;;;;;;2.16;62.06;101299.50;5145098;28;20061;-89
2022/01/12 10:34:11;;;;;;;50.53;31.17;;;;;;;2.39;61.13;101319.06;5139488;28;20103;-91
2022/01/12 10:37:06;;;;;;;35.20;19.65;;;;;;;1.65;61.75;101243.00;5157823;28;20052;-92
2022/01/12 10:40:03;;;;;;;40.03;22.25;;;;;;;1.30;61.86;101152.28;5160497;28;20093;-89
2022/01/12 10:42:56;;;;;;;40.13;20.33;;;;;;;2.03;61.47;101277.97;5162820;28;20140;-89
2022/01/12 10:45:49;;;;;;;35.58;19.63;;;;;;;2.24;60.40;101292.31;5174297;28;20522;-91
2022/01/12 10:48:43;;;;;;;34.22;17.55;;;;;;;2.43;59.71;101321.56;5155197;28;20064;-90
2022/01/12 10:51:33;;;;;;;31.42;17.45;;;;;;;2.18;60.04;101320.38;5155241;28;20049;-90
2022/01/12 10:54:23;;;;;;;29.92;17.33;;;;;;;2.29;60.68;101321.03;5159260;28;20242;-87
2022/01/12 10:57:35;;;;;;;32.85;17.25;;;;;;;2.38;60.87;101309.47;5125200;28;20053;-91
2022/01/12 11:00:26;;;;;;;31.75;18.35;;;;;;;2.32;61.53;101295.63;5147057;28;20104;-90
2022/01/12 11:03:18;;;;;;;32.67;18.10;;;;;;;2.33;60.19;101276.41;5162216;28;20053;-89
2022/01/12 11:06:09;;;;;;;35.33;17.92;;;;;;;2.28;60.51;101254.69;5156271;28;20085;-90
2022/01/12 11:09:00;;;;;;;32.75;17.73;;;;;;;2.44;59.58;101270.91;5156307;28;20054;-90
2022/01/12 11:11:50;;;;;;;29.70;16.80;;;;;;;2.54;59.85;101288.13;5189050;28;20057;-90
2022/01/12 11:14:40;;;;;;;31.15;17.38;;;;;;;2.15;61.12;101278.56;5162447;28;20038;-90
2022/01/12 11:17:30;;;;;;;33.63;18.25;;;;;;;2.29;61.59;101248.59;5146676;28;20534;-88
2022/01/12 11:20:30;;;;;;;31.23;17.80;;;;;;;3.12;59.87;101280.56;5174613;28;20101;-88
2022/01/12 11:23:20;;;;;;;30.70;17.48;;;;;;;3.27;59.58;101272.28;5148524;28;20045;-88
2022/01/12 11:26:21;;;;;;;34.92;18.02;;;;;;;3.33;58.43;101263.41;5146422;28;20053;-89
2022/01/12 11:29:12;;;;;;;30.95;17.23;;;;;;;3.27;58.69;101232.94;5178528;28;20042;-90
2022/01/12 11:32:07;;;;;;;29.23;17.05;;;;;;;3.48;58.80;101270.00;5151418;28;20050;-88
2022/01/12 11:35:03;;;;;;;27.92;16.33;;;;;;;3.57;58.82;101255.72;5141876;28;20556;-88
2022/01/12 11:37:59;;;;;;;27.13;15.95;;;;;;;3.41;57.50;101221.22;5156466;28;20505;-88
2022/01/12 11:40:50;;;;;;;32.10;17.25;;;;;;;2.88;59.39;101223.53;5150433;28;20053;-88
2022/01/12 11:44:01;;;;;;;27.65;16.73;;;;;;;3.23;58.14;101184.13;5165960;28;20047;-88
2022/01/12 11:46:55;;;;;;;32.47;16.98;;;;;;;2.64;60.45;101228.50;5144894;28;20057;-88
2022/01/12 11:49:47;;;;;;;33.15;17.17;;;;;;;3.02;60.13;101180.34;5149735;28;20560;-88
2022/01/12 11:52:37;;;;;;;31.33;16.30;;;;;;;2.71;59.94;101203.88;5184011;28;20042;-88
2022/01/12 11:55:40;;;;;;;28.75;16.52;;;;;;;2.94;59.13;101197.19;5166929;28;20061;-89
2022/01/12 11:58:30;;;;;;;26.80;15.80;;;;;;;3.34;58.42;101209.19;5150767;28;20065;-90
2022/01/12 12:01:22;;;;;;;29.77;16.27;;;;;;;3.09;59.79;101194.16;5163209;28;20110;-91
2022/01/12 12:04:26;;;;;;;28.27;16.23;;;;;;;3.41;58.73;101219.47;5138880;28;20448;-89
2022/01/12 12:07:17;;;;;;;29.65;17.08;;;;;;;3.53;57.75;101213.84;5158700;28;20046;-93
2022/01/12 12:10:14;;;;;;;28.50;16.55;;;;;;;3.78;56.89;101186.03;5154234;28;20048;-92
2022/01/12 12:13:06;;;;;;;23.48;14.80;;;;;;;3.61;57.57;101210.13;5143335;28;20049;-92
2022/01/12 12:15:57;;;;;;;32.85;17.65;;;;;;;3.40;59.29;101183.63;5145298;28;20126;-89
2022/01/12 12:18:48;;;;;;;27.63;15.93;;;;;;;3.57;57.51;101177.03;5154983;28;20104;-89
2022/01/12 12:21:47;;;;;;;25.98;15.65;;;;;;;3.37;58.14;101206.47;5160377;28;20061;-88
2022/01/12 12:24:37;;;;;;;25.13;14.82;;;;;;;3.35;57.06;101172.44;5175917;28;20053;-90
2022/01/12 12:27:29;;;;;;;27.23;14.95;;;;;;;3.47;56.60;101182.56;5146486;28;20180;-92
2022/01/12 12:30:22;;;;;;;28.58;15.30;;;;;;;2.94;58.92;101161.34;5158067;28;20433;-89
2022/01/12 12:33:14;;;;;;;24.95;14.18;;;;;;;3.11;59.22;101181.00;5141078;28;20157;-91
2022/01/12 12:36:07;;;;;;;26.37;15.37;;;;;;;3.30;57.53;101179.56;5167793;28;20103;-91
2022/01/12 12:39:13;;;;;;;24.48;14.98;;;;;;;3.51;57.18;101186.81;5148154;28;20281;-92
2022/01/12 12:42:20;;;;;;;25.95;15.27;;;;;;;3.05;56.34;101075.44;5145971;28;20074;-90
2022/01/12 12:45:20;;;;;;;23.33;13.82;;;;;;;3.19;55.53;101116.97;5152198;28;20048;-91
2022/01/12 12:48:18;;;;;;;26.00;16.23;;;;;;;3.23;57.32;101104.63;5143498;28;20054;-89
2022/01/12 12:51:13;;;;;;;;;;;;;;;3.87;57.38;101201.47;5157699;28;20068;-90
2022/01/12 12:54:11;;;;;;;28.92;14.60;;;;;;;2.73;56.99;101042.31;5173059;28;20011;-90
2022/01/12 12:57:23;;;;;;;25.60;14.95;;;;;;;3.46;57.17;101148.50;5173333;28;20049;-87
2022/01/12 13:00:24;;;;;;;23.52;14.80;;;;;;;2.19;58.41;101034.22;5178130;28;20060;-93
2022/01/12 13:03:23;;;;;;;19.95;12.68;;;;;;;2.22;56.73;100976.53;5166884;28;20131;-90
2022/01/12 13:06:30;;;;;;;23.20;13.68;;;;;;;2.40;56.94;101088.59;5166166;28;20104;-91
2022/01/12 13:09:25;;;;;;;25.75;14.68;;;;;;;3.11;57.69;101218.53;5153526;28;20058;-91
2022/01/12 13:12:15;;;;;;;22.85;12.43;;;;;;;2.05;59.04;101168.00;5183153;28;20088;-91
2022/01/12 13:15:13;;;;;;;22.58;13.75;;;;;;;3.08;58.26;101225.63;5167649;28;20065;-91
2022/01/12 13:18:14;;;;;;;24.33;14.20;;;;;;;2.96;58.80;101225.06;5172720;28;20057;-92
2022/01/12 13:21:08;;;;;;;24.08;14.30;;;;;;;3.20;57.44;101204.34;5156171;28;20049;-92
2022/01/12 13:24:00;;;;;;;24.83;14.75;;;;;;;3.57;56.44;101219.88;5173108;28;20542;-91
2022/01/12 13:26:54;;;;;;;24.98;15.18;;;;;;;3.76;57.11;101249.06;5169130;28;20053;-91
2022/01/12 13:29:48;;;;;;;23.08;13.20;;;;;;;3.17;56.11;101210.50;5148457;28;20152;-92
2022/01/12 13:32:38;;;;;;;20.73;13.27;;;;;;;3.64;55.74;101237.16;5163224;28;20049;-91
2022/01/12 13:35:35;;;;;;;22.98;13.45;;;;;;;3.09;58.15;101222.13;5154488;28;20139;-91
2022/01/12 13:38:30;;;;;;;22.77;13.57;;;;;;;3.60;56.40;101232.91;5139857;28;20042;-91
2022/01/12 13:41:22;;;;;;;24.23;14.65;;;;;;;3.32;56.40;101146.31;5154088;28;20137;-91
2022/01/12 13:44:17;;;;;;;56.30;23.63;;;;;;;3.67;57.08;101225.69;5155299;28;20117;-92
2022/01/12 13:47:22;;;;;;;29.65;14.52;;;;;;;3.84;57.12;101227.81;5179662;28;20121;-93
2022/01/12 13:50:13;;;;;;;24.98;15.00;;;;;;;3.78;57.20;101220.16;5157645;28;20158;-92
2022/01/12 13:53:04;;;;;;;118.00;40.85;;;;;;;3.78;57.43;101239.38;5150501;28;20060;-91
2022/01/12 13:55:55;;;;;;;32.63;17.85;;;;;;;3.33;56.27;101157.66;5186749;28;20183;-92
2022/01/12 13:58:45;;;;;;;39.92;21.42;;;;;;;3.34;56.56;101175.09;5124310;28;20049;-92
2022/01/12 14:01:38;;;;;;;25.75;15.20;;;;;;;3.75;56.61;101187.84;5149744;28;20413;-91
2022/01/12 14:04:37;;;;;;;24.42;14.27;;;;;;;3.59;56.29;101193.59;5150725;28;20039;-91
2022/01/12 14:07:35;;;;;;;24.48;14.85;;;;;;;3.70;57.22;101221.22;5147870;28;20202;-91
2022/01/12 14:10:29;;;;;;;35.15;19.60;;;;;;;3.87;56.37;101233.84;5154033;28;20444;-92
2022/01/12 14:13:29;;;;;;;29.80;16.58;;;;;;;3.99;56.35;101246.59;5166700;28;20050;-83
2022/01/12 14:16:31;;;;;;;23.33;13.93;;;;;;;4.00;55.33;101226.44;5151304;28;20042;-85
2022/01/12 14:19:21;;;;;;;23.30;14.35;;;;;;;3.57;56.48;101206.75;5157527;28;20114;-87
2022/01/12 14:22:11;;;;;;;23.73;14.73;;;;;;;3.75;55.51;101177.34;5142754;28;20543;-87
2022/01/12 14:25:03;;;;;;;25.50;14.95;;;;;;;3.97;56.96;101219.56;5185457;28;20035;-94
2022/01/12 14:27:58;;;;;;;22.00;13.85;;;;;;;3.82;56.90;101198.16;5200210;28;20211;-93